Time;durP1;ratioP1;P1;durP2;ratioP2;P2;SDS_P1;SDS_P2;PMS_P1;PMS_P2;Temp;Humidity;BMP_temperature;BMP_pressure;BME280_temperature;BME280_humidity;BME280_pressure;Samples;Min_cycle;Max_cycle;Signal;HPM_P1;HPM_P2
2021/06/03 00:00:27;;;;;;;19.10;10.30;;;26.20;65.30;;;;;;4955303;28;20466;-77
2021/06/03 00:02:54;;;;;;;15.30;10.07;;;26.20;65.50;;;;;;4947575;28;20445;-78
2021/06/03 00:05:23;;;;;;;14.67;10.60;;;26.10;65.70;;;;;;4952901;28;20430;-77
2021/06/03 00:07:50;;;;;;;19.27;10.65;;;26.10;65.90;;;;;;4935700;29;21043;-77
2021/06/03 00:10:17;;;;;;;17.92;10.40;;;26.00;66.10;;;;;;4952833;28;20445;-76
2021/06/03 00:12:43;;;;;;;16.95;11.13;;;26.00;66.30;;;;;;4946839;28;20760;-76
2021/06/03 00:15:13;;;;;;;19.70;11.10;;;26.00;66.10;;;;;;4953381;28;20413;-76
2021/06/03 00:17:42;;;;;;;19.48;11.30;;;26.00;66.00;;;;;;4935480;29;20838;-76
2021/06/03 00:20:11;;;;;;;16.00;10.57;;;26.00;66.10;;;;;;4953560;28;20433;-76
2021/06/03 00:22:37;;;;;;;18.80;10.45;;;25.90;66.10;;;;;;4950358;28;20429;-76
2021/06/03 00:25:05;;;;;;;17.95;10.52;;;25.90;66.30;;;;;;4938115;28;20430;-77
2021/06/03 00:27:32;;;;;;;17.08;11.00;;;25.90;66.60;;;;;;4935728;28;20433;-77
2021/06/03 00:29:58;;;;;;;18.20;11.10;;;25.80;66.80;;;;;;4935691;29;20438;-77
2021/06/03 00:32:25;;;;;;;18.37;10.93;;;25.80;67.90;;;;;;4955706;28;20433;-78
2021/06/03 00:34:52;;;;;;;18.67;10.93;;;25.70;67.20;;;;;;4934690;29;20441;-77
2021/06/03 00:37:19;;;;;;;17.67;11.10;;;25.70;67.20;;;;;;4951767;28;20444;-75
2021/06/03 00:39:45;;;;;;;16.02;10.98;;;25.70;67.20;;;;;;4952920;28;20422;-77
2021/06/03 00:42:12;;;;;;;15.68;10.90;;;25.70;67.40;;;;;;4950815;28;20457;-77
2021/06/03 00:44:38;;;;;;;16.88;11.30;;;25.70;67.30;;;;;;4953037;28;20516;-77
2021/06/03 00:47:05;;;;;;;18.25;10.82;;;25.60;67.50;;;;;;4936240;29;20476;-77
2021/06/03 00:49:31;;;;;;;14.93;10.98;;;25.60;67.70;;;;;;4951584;28;20440;-77
2021/06/03 00:51:59;;;;;;;19.40;11.02;;;25.50;67.80;;;;;;4952249;28;20436;-78
2021/06/03 00:54:25;;;;;;;16.73;10.60;;;25.50;68.20;;;;;;4951934;28;20512;-76
2021/06/03 00:56:53;;;;;;;18.95;11.52;;;25.50;68.20;;;;;;4934653;28;20825;-75
2021/06/03 00:59:20;;;;;;;17.27;11.13;;;25.50;68.00;;;;;;4934628;29;20430;-77
2021/06/03 01:01:46;;;;;;;18.53;11.10;;;25.50;68.50;;;;;;4935698;28;20430;-77
2021/06/03 01:04:17;;;;;;;15.82;11.25;;;25.40;68.70;;;;;;4952891;28;20425;-77
2021/06/03 01:06:44;;;;;;;17.88;11.10;;;25.40;68.90;;;;;;4953315;28;20435;-77
2021/06/03 01:09:16;;;;;;;19.17;11.13;;;25.40;69.30;;;;;;4953234;28;21016;-78
2021/06/03 01:11:48;;;;;;;18.25;11.02;;;25.30;69.30;;;;;;4933763;29;21061;-77
2021/06/03 01:14:20;;;;;;;16.58;10.70;;;25.30;69.10;;;;;;4952924;28;20442;-77
2021/06/03 01:16:49;;;;;;;17.85;11.55;;;25.30;69.30;;;;;;4931356;29;21268;-77
2021/06/03 01:19:20;;;;;;;16.65;10.90;;;25.30;69.00;;;;;;4933815;28;20424;-77
2021/06/03 01:21:55;;;;;;;16.08;11.18;;;25.30;68.60;;;;;;4935886;29;20425;-78
2021/06/03 01:24:26;;;;;;;19.45;11.23;;;25.30;68.90;;;;;;4949206;28;20433;-77
2021/06/03 01:26:57;;;;;;;17.75;11.63;;;25.20;68.90;;;;;;4953909;28;20906;-77
2021/06/03 01:29:27;;;;;;;21.23;11.50;;;25.20;69.10;;;;;;4934605;28;20523;-77
2021/06/03 01:31:55;;;;;;;15.37;11.40;;;25.20;69.40;;;;;;4950670;28;20922;-78
2021/06/03 01:34:26;;;;;;;17.90;11.00;;;25.20;69.20;;;;;;4951287;28;20430;-78
2021/06/03 01:37:00;;;;;;;18.17;12.02;;;25.10;69.20;;;;;;4935379;29;20496;-78
2021/06/03 01:39:29;;;;;;;16.92;11.43;;;25.10;69.30;;;;;;4952645;28;20512;-78
2021/06/03 01:41:56;;;;;;;16.98;11.23;;;25.10;69.60;;;;;;4935083;29;20433;-77
2021/06/03 01:44:24;;;;;;;16.13;11.60;;;25.00;69.60;;;;;;4935220;29;20440;-77
2021/06/03 01:46:53;;;;;;;21.27;11.07;;;25.00;69.20;;;;;;4933809;29;20552;-76
2021/06/03 01:49:20;;;;;;;16.35;11.27;;;25.00;68.30;;;;;;4953842;28;20437;-77
2021/06/03 01:51:47;;;;;;;16.42;11.15;;;25.00;67.70;;;;;;4935697;28;20430;-78
2021/06/03 01:54:16;;;;;;;17.33;10.63;;;25.00;67.20;;;;;;4948053;28;20934;-79
2021/06/03 01:56:46;;;;;;;14.95;10.30;;;25.00;66.80;;;;;;4936369;28;20438;-78
2021/06/03 01:59:15;;;;;;;19.15;10.82;;;25.00;66.70;;;;;;4932806;29;20414;-77
2021/06/03 02:01:41;;;;;;;17.73;10.20;;;24.90;66.20;;;;;;4951705;28;20465;-77
2021/06/03 02:04:07;;;;;;;15.55;9.90;;;24.90;66.20;;;;;;4935435;28;20458;-77
2021/06/03 02:06:34;;;;;;;16.17;9.98;;;24.90;65.70;;;;;;4935132;29;20441;-76
2021/06/03 02:09:06;;;;;;;15.40;9.93;;;24.90;65.60;;;;;;4948464;28;20599;-76
2021/06/03 02:11:36;;;;;;;14.75;10.05;;;24.80;65.40;;;;;;4952616;28;20430;-77
2021/06/03 02:14:05;;;;;;;14.98;9.90;;;24.80;65.40;;;;;;4936958;28;20426;-77
2021/06/03 02:16:43;;;;;;;14.05;10.00;;;24.80;65.30;;;;;;4934618;29;20437;-77
2021/06/03 02:19:14;;;;;;;13.73;9.98;;;24.80;64.60;;;;;;4953395;28;20437;-77
2021/06/03 02:21:52;;;;;;;15.73;10.50;;;24.70;64.10;;;;;;4948685;28;20437;-76
2021/06/03 02:24:21;;;;;;;18.27;10.73;;;24.60;65.00;;;;;;4933926;28;20430;-78
2021/06/03 02:26:50;;;;;;;13.98;10.30;;;24.50;65.50;;;;;;4950311;28;20783;-76
2021/06/03 02:29:18;;;;;;;18.70;10.98;;;24.40;66.00;;;;;;4933728;28;20443;-77
2021/06/03 02:32:10;;;;;;;15.95;11.05;;;24.20;66.80;;;;;;4934467;29;20429;-76
2021/06/03 02:34:39;;;;;;;16.77;10.88;;;24.10;67.80;;;;;;4946356;28;20433;-76
2021/06/03 02:37:08;;;;;;;18.15;11.82;;;24.10;68.10;;;;;;4937354;29;20448;-77
2021/06/03 02:39:35;;;;;;;17.73;10.93;;;24.10;67.60;;;;;;4939214;28;20746;-78
2021/06/03 02:42:04;;;;;;;13.27;10.82;;;24.10;67.30;;;;;;4935696;29;20484;-77
2021/06/03 02:44:34;;;;;;;19.33;11.75;;;24.10;67.30;;;;;;4939193;28;20447;-76
2021/06/03 02:47:04;;;;;;;14.38;10.77;;;24.00;67.60;;;;;;4950403;28;20886;-77
2021/06/03 02:49:32;;;;;;;15.10;11.00;;;24.00;67.70;;;;;;4952328;28;20492;-78
2021/06/03 02:52:01;;;;;;;15.05;11.35;;;24.00;68.10;;;;;;4948998;29;20437;-77
2021/06/03 02:54:28;;;;;;;16.40;11.30;;;23.90;68.40;;;;;;4936354;29;20430;-76
2021/06/03 02:56:55;;;;;;;16.35;11.20;;;23.90;68.80;;;;;;4935583;28;20536;-77
2021/06/03 02:59:23;;;;;;;13.90;11.00;;;23.80;69.30;;;;;;4934059;29;20434;-77
2021/06/03 03:01:50;;;;;;;15.30;11.40;;;23.80;70.00;;;;;;4934899;28;20441;-78
2021/06/03 03:04:17;;;;;;;13.95;11.27;;;23.80;70.40;;;;;;4933614;29;20441;-76
2021/06/03 03:06:43;;;;;;;15.77;11.38;;;23.80;70.60;;;;;;4934171;29;21127;-77
2021/06/03 03:09:10;;;;;;;15.05;11.00;;;23.90;70.90;;;;;;4950280;28;20433;-76
2021/06/03 03:11:37;;;;;;;16.23;11.50;;;23.90;71.90;;;;;;4952833;28;20438;-77
2021/06/03 03:14:07;;;;;;;14.32;11.07;;;23.80;71.50;;;;;;4953471;28;20459;-76
2021/06/03 03:16:35;;;;;;;15.65;10.68;;;23.80;72.30;;;;;;4932813;29;20433;-78
2021/06/03 03:19:05;;;;;;;15.38;11.00;;;23.80;72.80;;;;;;4933801;29;20433;-77
2021/06/03 03:21:34;;;;;;;14.43;11.18;;;23.80;72.90;;;;;;4933349;28;20446;-77
2021/06/03 03:24:00;;;;;;;15.70;10.65;;;23.80;73.00;;;;;;4932784;29;20786;-77
2021/06/03 03:26:27;;;;;;;14.68;10.90;;;23.90;73.10;;;;;;4951407;28;20430;-76
2021/06/03 03:28:54;;;;;;;16.23;11.10;;;23.90;73.10;;;;;;4934410;29;20436;-74
2021/06/03 03:31:21;;;;;;;15.70;10.82;;;23.90;73.10;;;;;;4932781;28;20437;-76
2021/06/03 03:33:49;;;;;;;16.75;11.45;;;23.90;73.20;;;;;;4932417;29;20510;-78
2021/06/03 03:36:18;;;;;;;15.05;10.85;;;23.90;73.20;;;;;;4950394;28;20429;-77
2021/06/03 03:38:48;;;;;;;13.25;10.43;;;24.00;73.50;;;;;;4929004;28;20899;-77
2021/06/03 03:41:14;;;;;;;14.73;11.07;;;24.00;73.60;;;;;;4924383;29;20433;-78
2021/06/03 03:43:41;;;;;;;14.95;11.38;;;23.90;73.70;;;;;;4922641;28;20843;-77
2021/06/03 03:46:08;;;;;;;16.77;11.50;;;24.00;73.90;;;;;;4922454;29;20531;-77
2021/06/03 03:48:38;;;;;;;15.90;11.00;;;23.90;74.00;;;;;;4922600;28;20512;-78
2021/06/03 03:51:04;;;;;;;17.23;11.68;;;23.90;74.30;;;;;;4940170;28;20461;-77
2021/06/03 03:53:41;;;;;;;17.98;11.18;;;23.90;74.40;;;;;;4941068;28;20850;-77
2021/06/03 03:56:11;;;;;;;16.23;11.80;;;23.90;74.60;;;;;;4938376;28;20481;-77
2021/06/03 03:58:41;;;;;;;17.90;11.35;;;23.90;74.70;;;;;;4940576;28;20437;-79
2021/06/03 04:01:09;;;;;;;17.10;11.55;;;23.90;74.90;;;;;;4937622;28;20448;-77
2021/06/03 04:03:37;;;;;;;16.27;11.40;;;23.90;75.00;;;;;;4923237;29;20448;-80
2021/06/03 04:06:08;;;;;;;14.50;11.18;;;23.80;75.20;;;;;;4939613;28;20953;-78
2021/06/03 04:08:36;;;;;;;17.55;11.43;;;23.90;75.50;;;;;;4923292;29;20445;-75
2021/06/03 04:11:05;;;;;;;17.85;11.50;;;23.90;75.60;;;;;;4920748;28;20568;-77
2021/06/03 04:13:37;;;;;;;14.80;10.70;;;23.90;75.60;;;;;;4939601;28;20440;-78
2021/06/03 04:16:07;;;;;;;16.42;10.60;;;23.90;76.00;;;;;;4921610;28;20457;-77
2021/06/03 04:18:34;;;;;;;14.03;10.70;;;23.80;76.00;;;;;;4921821;29;20443;-76
2021/06/03 04:21:01;;;;;;;15.15;10.43;;;23.80;76.30;;;;;;4921040;29;20772;-78
2021/06/03 04:23:28;;;;;;;13.18;10.20;;;23.80;76.70;;;;;;4921390;29;20532;-79
2021/06/03 04:25:55;;;;;;;13.38;10.35;;;23.90;77.00;;;;;;4938806;28;20429;-78
2021/06/03 04:28:22;;;;;;;14.37;10.33;;;23.90;77.10;;;;;;4939647;28;21136;-76
2021/06/03 04:30:49;;;;;;;12.30;9.95;;;23.90;77.30;;;;;;4938392;28;20578;-77
2021/06/03 04:33:20;;;;;;;13.07;9.88;;;23.80;77.50;;;;;;4939820;28;20437;-77
2021/06/03 04:35:46;;;;;;;14.15;10.20;;;23.90;77.80;;;;;;4938574;28;20448;-78
2021/06/03 04:38:13;;;;;;;13.70;10.02;;;23.80;78.00;;;;;;4940020;28;20445;-77
2021/06/03 04:40:39;;;;;;;14.45;10.30;;;23.80;78.10;;;;;;4938835;28;20437;-77
2021/06/03 04:43:06;;;;;;;14.88;9.93;;;23.80;78.50;;;;;;4939790;28;20433;-78
2021/06/03 04:45:36;;;;;;;13.85;10.23;;;23.80;78.70;;;;;;4938825;28;20440;-77
2021/06/03 04:48:04;;;;;;;12.35;10.30;;;23.80;78.80;;;;;;4922427;29;20446;-79
2021/06/03 04:50:30;;;;;;;13.40;10.10;;;23.80;78.80;;;;;;4920695;29;20839;-77
2021/06/03 04:52:56;;;;;;;13.33;10.37;;;23.80;79.00;;;;;;4944663;28;21215;-76
2021/06/03 04:55:25;;;;;;;18.35;10.95;;;23.80;79.40;;;;;;4931645;29;20429;-76
2021/06/03 04:57:53;;;;;;;14.77;10.57;;;23.80;79.60;;;;;;4949439;28;20433;-77
2021/06/03 05:00:22;;;;;;;14.13;10.43;;;23.80;79.70;;;;;;4944363;28;20445;-75
2021/06/03 05:02:51;;;;;;;15.10;10.57;;;23.80;80.00;;;;;;4946007;28;20429;-75
2021/06/03 05:05:17;;;;;;;17.50;10.70;;;23.80;80.20;;;;;;4932353;29;20437;-74
2021/06/03 05:07:46;;;;;;;15.63;11.07;;;23.80;80.30;;;;;;4947080;28;20468;-77
2021/06/03 05:10:14;;;;;;;14.85;10.80;;;23.80;80.30;;;;;;4949359;28;20439;-76
2021/06/03 05:12:41;;;;;;;12.95;10.70;;;23.80;80.40;;;;;;4949802;28;20461;-74
2021/06/03 05:15:11;;;;;;;18.25;11.27;;;23.80;80.70;;;;;;4932839;28;20525;-76
2021/06/03 05:17:38;;;;;;;15.57;11.50;;;23.70;81.00;;;;;;4949111;28;20786;-76
2021/06/03 05:20:09;;;;;;;15.05;11.30;;;23.70;81.30;;;;;;4951079;28;20439;-77
2021/06/03 05:22:36;;;;;;;16.23;11.00;;;23.60;81.60;;;;;;4930105;29;20532;-77
2021/06/03 05:25:04;;;;;;;16.07;11.33;;;23.60;81.90;;;;;;4950518;28;20846;-76
2021/06/03 05:27:31;;;;;;;17.33;11.10;;;23.60;82.20;;;;;;4947502;28;20445;-76
2021/06/03 05:29:57;;;;;;;16.83;11.45;;;23.60;82.40;;;;;;4949777;28;20433;-76
2021/06/03 05:32:23;;;;;;;15.65;11.60;;;23.60;82.50;;;;;;4948088;28;20767;-76
2021/06/03 05:34:50;;;;;;;16.48;11.30;;;23.60;82.50;;;;;;4934554;29;20446;-76
2021/06/03 05:37:18;;;;;;;17.48;11.40;;;23.60;82.60;;;;;;4947905;28;20441;-77
2021/06/03 05:39:44;;;;;;;16.55;10.85;;;23.60;82.70;;;;;;4952234;28;20432;-76
2021/06/03 05:42:11;;;;;;;16.08;11.23;;;23.60;83.00;;;;;;4951161;28;20438;-76
2021/06/03 05:44:37;;;;;;;15.13;10.70;;;23.60;83.10;;;;;;4947509;28;20448;-76
2021/06/03 05:47:04;;;;;;;14.88;10.88;;;23.70;83.00;;;;;;4949199;28;20492;-76
2021/06/03 05:49:30;;;;;;;15.60;11.02;;;23.60;82.80;;;;;;4950022;28;20496;-76
2021/06/03 05:52:01;;;;;;;17.50;11.30;;;23.60;83.10;;;;;;4933233;28;20482;-75
2021/06/03 05:54:30;;;;;;;14.77;11.15;;;23.60;82.90;;;;;;4950596;28;20536;-76
2021/06/03 05:56:56;;;;;;;14.73;11.35;;;23.60;83.10;;;;;;4952021;28;20436;-77
2021/06/03 05:59:23;;;;;;;15.05;11.55;;;23.60;83.40;;;;;;4929013;29;20449;-75
2021/06/03 06:01:49;;;;;;;14.77;11.35;;;23.70;83.50;;;;;;4950685;28;20440;-75
2021/06/03 06:06:59;;;;;;;17.45;11.77;;;23.70;83.50;;;;;;4951133;28;20430;-76
2021/06/03 06:09:25;;;;;;;15.75;11.90;;;23.60;83.50;;;;;;4950783;28;20436;-75
2021/06/03 06:11:53;;;;;;;16.75;11.57;;;23.70;83.70;;;;;;4932428;29;20496;-77
2021/06/03 06:14:20;;;;;;;16.63;11.70;;;23.70;83.80;;;;;;4950128;29;20466;-73
2021/06/03 06:16:46;;;;;;;16.65;12.15;;;23.70;83.70;;;;;;4955413;28;20431;-75
2021/06/03 06:19:12;;;;;;;18.75;13.00;;;23.70;84.10;;;;;;4954032;28;20949;-77
2021/06/03 06:21:39;;;;;;;19.52;12.55;;;23.70;84.20;;;;;;4951765;28;20437;-74
2021/06/03 06:24:06;;;;;;;18.97;12.40;;;23.70;84.00;;;;;;4951772;28;20437;-80
2021/06/03 06:26:33;;;;;;;18.85;12.35;;;23.70;84.40;;;;;;4949727;28;20859;-74
2021/06/03 06:29:01;;;;;;;18.73;12.98;;;23.60;84.70;;;;;;4952895;28;20409;-73
2021/06/03 06:31:27;;;;;;;17.88;13.07;;;23.60;84.60;;;;;;4931434;29;20575;-78
2021/06/03 06:33:54;;;;;;;20.15;12.02;;;23.60;84.40;;;;;;4951138;28;21208;-76
2021/06/03 06:36:20;;;;;;;16.25;12.73;;;23.60;84.60;;;;;;4952015;28;20432;-73
2021/06/03 06:38:46;;;;;;;16.30;12.53;;;23.60;84.80;;;;;;4955085;28;20429;-74
2021/06/03 06:41:14;;;;;;;20.45;12.57;;;23.50;84.80;;;;;;4949492;28;20440;-74
2021/06/03 06:43:40;;;;;;;19.30;12.77;;;23.50;85.00;;;;;;4944306;28;20434;-73
2021/06/03 06:46:08;;;;;;;17.15;12.30;;;23.50;85.10;;;;;;4949214;28;20449;-73
2021/06/03 06:48:35;;;;;;;17.87;13.37;;;23.50;85.30;;;;;;4949569;28;20449;-74
2021/06/03 06:51:01;;;;;;;17.80;12.70;;;23.50;85.30;;;;;;4946097;28;20914;-73
2021/06/03 06:53:28;;;;;;;17.75;12.70;;;23.50;85.30;;;;;;4930273;29;20430;-73
2021/06/03 06:55:55;;;;;;;17.77;13.00;;;23.50;85.40;;;;;;4949106;28;20456;-74
2021/06/03 06:58:22;;;;;;;16.65;12.98;;;23.50;85.40;;;;;;4949761;28;20440;-74
2021/06/03 07:00:49;;;;;;;17.03;12.57;;;23.50;85.60;;;;;;4948058;28;20981;-73
2021/06/03 07:03:17;;;;;;;23.38;13.13;;;23.50;85.20;;;;;;4930609;28;20835;-73
2021/06/03 07:05:46;;;;;;;17.67;12.57;;;23.50;85.30;;;;;;4943549;28;20445;-75
2021/06/03 07:08:12;;;;;;;18.42;12.82;;;23.50;85.50;;;;;;4947811;28;20445;-73
2021/06/03 07:10:39;;;;;;;16.98;12.63;;;23.50;85.60;;;;;;4949357;28;20441;-75
2021/06/03 07:13:05;;;;;;;15.73;12.48;;;23.60;85.80;;;;;;4931031;29;20438;-75
2021/06/03 07:15:31;;;;;;;17.33;12.05;;;23.60;85.10;;;;;;4948851;28;20816;-73
2021/06/03 07:17:58;;;;;;;17.27;12.20;;;23.60;84.50;;;;;;4945875;28;20505;-76
2021/06/03 07:20:26;;;;;;;16.83;11.73;;;23.60;84.30;;;;;;4945507;28;20911;-73
2021/06/03 07:22:53;;;;;;;14.07;10.82;;;23.60;83.40;;;;;;4948812;28;20492;-76
2021/06/03 07:25:22;;;;;;;14.95;10.60;;;23.70;83.10;;;;;;4952337;28;20441;-74
2021/06/03 07:27:50;;;;;;;17.57;10.70;;;23.70;83.10;;;;;;4934223;28;20448;-76
2021/06/03 07:30:20;;;;;;;12.85;10.10;;;23.70;83.00;;;;;;4952977;28;20445;-76
2021/06/03 07:32:47;;;;;;;16.08;12.32;;;23.80;82.70;;;;;;4951789;28;20433;-75
2021/06/03 07:35:14;;;;;;;16.58;11.32;;;23.80;81.40;;;;;;4952855;28;20444;-74
2021/06/03 07:37:43;;;;;;;17.25;12.88;;;23.90;80.70;;;;;;4952731;28;20449;-75
2021/06/03 07:40:14;;;;;;;18.42;12.52;;;23.90;79.60;;;;;;4933245;29;20448;-76
2021/06/03 07:42:41;;;;;;;18.58;12.68;;;24.00;79.30;;;;;;4932981;28;20448;-76
2021/06/03 07:45:10;;;;;;;18.85;12.73;;;24.10;80.10;;;;;;4934800;29;20440;-75
2021/06/03 07:47:36;;;;;;;15.80;12.30;;;24.10;78.60;;;;;;4952892;28;20492;-75
2021/06/03 07:50:03;;;;;;;16.83;13.17;;;24.20;78.70;;;;;;4950960;28;20435;-74
2021/06/03 07:52:32;;;;;;;16.95;14.38;;;24.20;77.80;;;;;;4953346;28;20910;-75
2021/06/03 07:54:59;;;;;;;20.48;13.38;;;24.20;76.50;;;;;;4952603;28;20889;-76
2021/06/03 07:57:26;;;;;;;19.20;13.27;;;24.20;76.30;;;;;;4952780;28;20433;-74
2021/06/03 07:59:52;;;;;;;18.85;14.00;;;24.20;76.50;;;;;;4952403;28;20838;-73
2021/06/03 08:02:19;;;;;;;18.98;14.07;;;24.20;76.20;;;;;;4934140;29;20437;-75
2021/06/03 08:04:45;;;;;;;18.80;14.13;;;24.20;76.30;;;;;;4932024;29;20434;-73
2021/06/03 08:07:11;;;;;;;21.45;15.55;;;24.10;76.60;;;;;;4949405;28;20445;-72
2021/06/03 08:09:38;;;;;;;20.80;14.77;;;24.10;76.20;;;;;;4951614;28;20771;-75
2021/06/03 08:12:07;;;;;;;21.58;14.68;;;24.10;76.20;;;;;;4949240;28;20441;-74
2021/06/03 08:14:34;;;;;;;19.27;14.60;;;24.10;76.80;;;;;;4946820;28;20449;-73
2021/06/03 08:17:00;;;;;;;20.48;15.50;;;24.10;77.40;;;;;;4950775;28;20441;-74
2021/06/03 08:19:26;;;;;;;23.23;15.82;;;24.10;75.20;;;;;;4953243;28;20456;-73
2021/06/03 08:21:53;;;;;;;23.10;16.33;;;24.10;74.90;;;;;;4949559;28;20433;-73
2021/06/03 08:24:19;;;;;;;22.80;15.95;;;24.10;74.30;;;;;;4951292;28;20516;-74
2021/06/03 08:26:50;;;;;;;19.80;14.93;;;24.10;74.80;;;;;;4948908;28;21098;-74
2021/06/03 08:29:17;;;;;;;23.33;15.85;;;24.10;75.20;;;;;;4950421;28;20504;-73
2021/06/03 08:31:44;;;;;;;23.07;15.80;;;24.20;75.90;;;;;;4935378;28;21210;-73
2021/06/03 08:34:11;;;;;;;23.52;15.18;;;24.20;75.80;;;;;;4949021;28;20438;-73
2021/06/03 08:36:38;;;;;;;22.58;15.02;;;24.20;75.90;;;;;;4952333;28;20444;-73
2021/06/03 08:39:05;;;;;;;22.25;15.80;;;24.30;76.00;;;;;;4949831;28;20434;-74
2021/06/03 08:41:35;;;;;;;19.95;15.15;;;24.40;76.30;;;;;;4934616;28;20485;-73
2021/06/03 08:44:04;;;;;;;20.20;14.20;;;24.40;75.90;;;;;;4933552;29;20456;-73
2021/06/03 08:46:32;;;;;;;19.70;13.87;;;24.50;76.30;;;;;;4949404;28;20788;-73
2021/06/03 08:49:01;;;;;;;20.48;14.32;;;24.50;76.30;;;;;;4951392;28;20497;-72
2021/06/03 08:51:28;;;;;;;20.58;13.60;;;24.60;76.50;;;;;;4949537;29;20444;-75
2021/06/03 08:53:54;;;;;;;20.63;13.75;;;24.60;76.50;;;;;;4950638;28;20444;-73
2021/06/03 08:56:21;;;;;;;21.47;13.07;;;24.70;76.60;;;;;;4949774;28;20437;-75
2021/06/03 08:58:49;;;;;;;19.03;13.23;;;24.80;76.70;;;;;;4948352;28;20442;-74
2021/06/03 09:01:17;;;;;;;22.13;14.52;;;24.80;76.60;;;;;;4951581;28;20925;-73
2021/06/03 09:03:45;;;;;;;26.63;15.73;;;24.90;76.10;;;;;;4948875;28;20437;-73
2021/06/03 09:06:15;;;;;;;23.43;17.50;;;24.90;74.60;;;;;;4949899;28;20440;-73
2021/06/03 09:08:46;;;;;;;25.52;17.67;;;24.80;74.20;;;;;;4931557;29;20426;-74
2021/06/03 09:11:15;;;;;;;23.80;17.58;;;24.80;74.40;;;;;;4950120;28;20523;-76
2021/06/03 09:13:43;;;;;;;24.70;18.77;;;24.70;74.80;;;;;;4948114;28;20438;-73
2021/06/03 09:16:15;;;;;;;26.93;18.50;;;24.60;74.90;;;;;;4951921;28;20435;-74
2021/06/03 09:18:45;;;;;;;30.65;19.70;;;24.50;74.70;;;;;;4947492;28;20488;-74
2021/06/03 09:21:14;;;;;;;28.00;19.07;;;24.50;73.80;;;;;;4931562;28;20448;-74
2021/06/03 09:23:41;;;;;;;27.75;19.65;;;24.50;73.50;;;;;;4950619;28;20838;-74
2021/06/03 09:26:10;;;;;;;24.05;18.77;;;24.40;74.60;;;;;;4931105;29;20484;-74
2021/06/03 09:28:37;;;;;;;23.85;18.13;;;24.40;75.20;;;;;;4948645;28;20448;-73
2021/06/03 09:31:13;;;;;;;28.63;19.00;;;24.40;75.00;;;;;;4945880;28;20484;-74
2021/06/03 09:33:54;;;;;;;26.05;18.75;;;24.40;75.50;;;;;;4950980;28;20439;-74
2021/06/03 09:36:33;;;;;;;27.80;18.83;;;24.40;75.80;;;;;;4950493;28;20436;-73
2021/06/03 09:39:21;;;;;;;29.05;18.98;;;24.40;76.00;;;;;;4949907;28;20484;-75
2021/06/03 09:41:51;;;;;;;25.60;17.73;;;24.50;75.80;;;;;;4941641;28;20536;-73
2021/06/03 09:44:24;;;;;;;23.42;17.63;;;24.50;75.10;;;;;;4948695;28;20438;-74
2021/06/03 09:46:53;;;;;;;26.63;18.35;;;24.60;74.70;;;;;;4950745;28;20437;-73
2021/06/03 09:49:27;;;;;;;26.38;18.15;;;24.70;74.70;;;;;;4948811;28;20444;-73
2021/06/03 09:52:03;;;;;;;26.90;18.07;;;24.70;74.50;;;;;;4950173;28;20441;-73
2021/06/03 09:54:30;;;;;;;23.48;16.60;;;24.70;74.40;;;;;;4932435;28;20453;-73
2021/06/03 09:57:00;;;;;;;23.73;15.90;;;24.80;74.80;;;;;;4950280;28;20438;-74
2021/06/03 09:59:29;;;;;;;26.15;16.80;;;24.80;75.30;;;;;;4951176;28;20433;-74
2021/06/03 10:02:03;;;;;;;23.33;17.52;;;24.80;75.10;;;;;;4948868;28;20437;-75
2021/06/03 10:04:44;;;;;;;21.58;16.50;;;24.90;74.80;;;;;;4949363;28;20441;-73
2021/06/03 10:07:19;;;;;;;24.55;17.55;;;24.90;75.10;;;;;;4932631;29;20442;-74
2021/06/03 10:09:51;;;;;;;23.10;16.95;;;25.00;74.40;;;;;;4948451;28;20921;-73
2021/06/03 10:12:30;;;;;;;23.80;15.93;;;25.00;74.20;;;;;;4944944;28;20528;-74
2021/06/03 10:14:58;;;;;;;20.60;15.27;;;25.00;74.00;;;;;;4950669;28;20441;-74
2021/06/03 10:17:28;;;;;;;27.00;16.55;;;25.10;73.90;;;;;;4948972;28;20444;-75
2021/06/03 10:19:58;;;;;;;23.48;18.02;;;25.10;73.50;;;;;;4948044;28;21013;-74
2021/06/03 10:22:26;;;;;;;29.10;19.23;;;25.10;72.10;;;;;;4950420;28;20448;-74
2021/06/03 10:24:58;;;;;;;28.08;19.80;;;25.20;71.60;;;;;;4932727;29;20438;-73
2021/06/03 10:27:28;;;;;;;29.25;21.20;;;25.20;71.30;;;;;;4949243;28;20461;-73
2021/06/03 10:29:55;;;;;;;28.45;20.88;;;25.20;70.90;;;;;;4947882;28;20443;-75
2021/06/03 10:32:23;;;;;;;26.20;19.40;;;25.20;70.70;;;;;;4951255;28;20937;-73
2021/06/03 10:34:53;;;;;;;29.00;21.58;;;25.10;70.70;;;;;;4948325;28;20556;-73
2021/06/03 10:37:22;;;;;;;30.58;20.27;;;25.10;69.90;;;;;;4931993;28;20820;-74
2021/06/03 10:39:50;;;;;;;27.35;20.77;;;25.10;69.70;;;;;;4946388;28;20434;-74
2021/06/03 10:42:18;;;;;;;28.75;20.42;;;25.00;69.40;;;;;;4949984;28;20794;-73
2021/06/03 10:44:46;;;;;;;29.25;20.65;;;25.00;69.10;;;;;;4949148;28;20834;-73
2021/06/03 10:47:14;;;;;;;30.20;20.08;;;25.10;69.30;;;;;;4950843;28;20433;-74
2021/06/03 10:49:41;;;;;;;28.98;20.63;;;25.10;69.10;;;;;;4947628;28;20438;-74
2021/06/03 10:52:09;;;;;;;30.20;21.38;;;25.10;68.90;;;;;;4945474;28;20836;-74
2021/06/03 10:54:56;;;;;;;28.83;20.42;;;25.10;69.10;;;;;;4948095;28;20444;-75
2021/06/03 10:57:24;;;;;;;31.05;19.95;;;25.10;69.30;;;;;;4952495;28;20445;-73
2021/06/03 10:59:52;;;;;;;27.42;20.23;;;25.10;69.30;;;;;;4950136;28;20495;-74
2021/06/03 11:02:19;;;;;;;30.23;20.80;;;25.20;69.10;;;;;;4952748;28;20429;-75
2021/06/03 11:04:46;;;;;;;28.85;21.30;;;25.20;68.50;;;;;;4952503;28;20438;-72
2021/06/03 11:07:14;;;;;;;33.65;21.80;;;25.30;68.40;;;;;;4935055;29;20480;-73
2021/06/03 11:09:44;;;;;;;30.27;21.70;;;25.30;67.80;;;;;;4952017;28;20429;-72
2021/06/03 11:12:20;;;;;;;26.95;21.38;;;25.30;68.10;;;;;;4933614;29;21331;-75
2021/06/03 11:15:10;;;;;;;29.10;21.52;;;25.20;68.40;;;;;;4953643;28;20533;-73
2021/06/03 11:17:57;;;;;;;36.88;22.33;;;25.20;68.90;;;;;;4953414;28;20441;-75
2021/06/03 11:20:49;;;;;;;40.30;22.58;;;25.20;69.20;;;;;;4950237;28;20438;-76
2021/06/03 11:23:44;;;;;;;32.20;23.80;;;25.20;69.10;;;;;;4931375;28;20460;-74
2021/06/03 11:26:50;;;;;;;31.80;23.85;;;25.20;68.90;;;;;;4951134;28;20445;-75
2021/06/03 11:29:19;;;;;;;33.83;22.02;;;25.20;69.00;;;;;;4949909;28;20508;-74
2021/06/03 11:31:48;;;;;;;30.17;22.57;;;25.20;69.30;;;;;;4951327;28;20445;-73
2021/06/03 11:34:16;;;;;;;40.33;22.60;;;25.20;69.30;;;;;;4933916;28;20433;-72
2021/06/03 11:36:45;;;;;;;30.23;22.47;;;25.30;69.40;;;;;;4951814;28;20429;-73
2021/06/03 11:39:36;;;;;;;33.95;22.40;;;25.30;69.20;;;;;;4950754;28;20448;-72
2021/06/03 11:42:37;;;;;;;31.92;21.83;;;25.40;69.00;;;;;;4951583;28;20508;-75
2021/06/03 11:45:10;;;;;;;31.83;22.95;;;25.40;69.00;;;;;;4953420;28;20465;-74
2021/06/03 11:47:56;;;;;;;31.90;22.67;;;25.40;69.00;;;;;;4952124;28;20946;-73
2021/06/03 11:50:54;;;;;;;30.42;21.98;;;25.50;68.60;;;;;;4947846;28;21690;-75
2021/06/03 11:53:23;;;;;;;30.10;21.80;;;25.50;68.30;;;;;;4883740;28;20440;-73
2021/06/03 11:55:52;;;;;;;32.97;21.57;;;25.60;68.00;;;;;;4951672;28;20453;-73
2021/06/03 11:58:25;;;;;;;32.40;23.73;;;25.70;67.80;;;;;;4952929;28;20462;-73
2021/06/03 12:00:54;;;;;;;29.52;22.05;;;25.70;67.30;;;;;;4951898;28;20439;-75
2021/06/03 12:03:43;;;;;;;34.20;24.60;;;25.70;67.30;;;;;;4949382;28;20504;-76
2021/06/03 12:06:13;;;;;;;36.55;24.45;;;25.70;67.50;;;;;;4930986;29;20437;-76
2021/06/03 12:08:45;;;;;;;32.45;23.52;;;25.80;67.80;;;;;;4951489;28;20914;-75
2021/06/03 12:11:19;;;;;;;34.93;25.07;;;25.80;67.90;;;;;;4952582;28;20448;-74
2021/06/03 12:13:47;;;;;;;35.92;23.67;;;25.90;67.20;;;;;;4955062;28;20445;-74
2021/06/03 12:16:18;;;;;;;34.65;24.52;;;26.00;67.90;;;;;;4952132;28;20437;-75
2021/06/03 12:18:48;;;;;;;32.67;24.05;;;26.10;67.70;;;;;;4949118;28;20441;-73
2021/06/03 12:21:14;;;;;;;34.67;23.33;;;26.10;68.50;;;;;;4950571;28;20441;-76
2021/06/03 12:23:52;;;;;;;35.20;24.17;;;26.10;68.10;;;;;;4951190;28;20441;-74
2021/06/03 12:26:19;;;;;;;34.03;22.90;;;26.20;67.80;;;;;;4951892;28;20434;-73
2021/06/03 12:28:47;;;;;;;30.83;22.73;;;26.20;67.70;;;;;;4949784;28;20467;-75
2021/06/03 12:31:24;;;;;;;32.70;23.00;;;26.20;67.60;;;;;;4951056;28;20444;-73
2021/06/03 12:33:50;;;;;;;30.95;21.75;;;26.30;67.20;;;;;;4951456;28;20511;-74
2021/06/03 12:36:17;;;;;;;31.20;22.53;;;26.40;67.50;;;;;;4948625;28;20433;-74
2021/06/03 12:38:44;;;;;;;29.52;21.23;;;26.50;66.90;;;;;;4952425;28;20449;-75
2021/06/03 12:41:25;;;;;;;31.67;21.60;;;26.60;67.10;;;;;;4950073;28;20905;-74